Time;durP1;ratioP1;P1;durP2;ratioP2;P2;SDS_P1;SDS_P2;PMS_P1;PMS_P2;Temp;Humidity;BMP_temperature;BMP_pressure;BME280_temperature;BME280_humidity;BME280_pressure;Samples;Min_cycle;Max_cycle;Signal;HPM_P1;HPM_P2
2023/07/30 00:02:02;;;;;;;3.78;2.05;;;;;;;;;;10413792;27;20074;-62
2023/07/30 00:07:00;;;;;;;4.00;2.40;;;;;;;;;;10419039;27;20074;-62
2023/07/30 00:12:01;;;;;;;3.95;2.50;;;;;;;;;;10415505;27;20524;-62
2023/07/30 00:17:00;;;;;;;7.63;2.58;;;;;;;;;;10419809;27;20071;-62
2023/07/30 00:21:58;;;;;;;9.38;3.67;;;;;;;;;;10415515;27;20070;-62
2023/07/30 00:26:56;;;;;;;3.05;2.40;;;;;;;;;;10417027;27;20524;-61
2023/07/30 00:31:56;;;;;;;3.33;2.30;;;;;;;;;;10417040;27;20066;-62
2023/07/30 00:36:54;;;;;;;2.63;2.42;;;;;;;;;;10417730;27;20074;-62
2023/07/30 00:41:52;;;;;;;5.40;2.60;;;;;;;;;;10416340;27;20067;-63
2023/07/30 00:46:50;;;;;;;2.45;2.25;;;;;;;;;;10414226;27;20071;-61
2023/07/30 00:51:51;;;;;;;4.47;2.05;;;;;;;;;;10398089;27;20085;-63
2023/07/30 00:56:52;;;;;;;6.00;2.47;;;;;;;;;;10410725;27;20534;-62
2023/07/30 01:01:52;;;;;;;2.75;2.25;;;;;;;;;;10416892;27;20082;-62
2023/07/30 01:06:52;;;;;;;2.75;2.10;;;;;;;;;;10411688;27;20071;-62
2023/07/30 01:11:50;;;;;;;3.92;2.08;;;;;;;;;;10412265;27;20068;-62
2023/07/30 01:16:49;;;;;;;4.30;2.65;;;;;;;;;;10413199;27;20077;-61
2023/07/30 01:21:48;;;;;;;2.97;2.15;;;;;;;;;;10405390;27;20070;-62
2023/07/30 01:26:50;;;;;;;3.85;2.30;;;;;;;;;;10394802;27;20075;-62
2023/07/30 01:31:48;;;;;;;3.50;2.22;;;;;;;;;;10412690;27;20510;-62
2023/07/30 01:36:48;;;;;;;3.15;2.13;;;;;;;;;;10402692;27;20084;-62
2023/07/30 01:41:47;;;;;;;4.93;2.20;;;;;;;;;;10411686;27;20064;-62
2023/07/30 01:46:45;;;;;;;3.55;2.20;;;;;;;;;;10407110;27;20078;-63
2023/07/30 01:51:44;;;;;;;3.42;2.05;;;;;;;;;;10398046;27;20070;-62
2023/07/30 01:56:42;;;;;;;3.45;2.17;;;;;;;;;;10413123;27;20086;-62
2023/07/30 02:01:42;;;;;;;2.03;1.83;;;;;;;;;;10412430;27;20074;-61
2023/07/30 02:06:40;;;;;;;3.90;2.80;;;;;;;;;;10410480;27;20063;-62
2023/07/30 02:11:39;;;;;;;3.58;2.63;;;;;;;;;;10390275;27;20047;-62
2023/07/30 02:16:37;;;;;;;3.28;2.75;;;;;;;;;;10409816;27;20068;-62
2023/07/30 02:21:38;;;;;;;2.08;1.88;;;;;;;;;;10413121;27;20059;-63
2023/07/30 02:26:38;;;;;;;2.10;1.90;;;;;;;;;;10410960;27;20192;-62
2023/07/30 02:31:36;;;;;;;4.43;2.47;;;;;;;;;;10400297;27;20044;-63
2023/07/30 02:36:35;;;;;;;2.70;2.30;;;;;;;;;;10414805;27;20083;-61
2023/07/30 02:41:34;;;;;;;3.03;2.22;;;;;;;;;;10390674;28;20075;-62
2023/07/30 02:46:33;;;;;;;3.40;2.33;;;;;;;;;;10399128;28;20074;-62
2023/07/30 02:51:31;;;;;;;2.88;2.45;;;;;;;;;;10411257;28;20527;-62
2023/07/30 02:56:30;;;;;;;2.67;2.42;;;;;;;;;;10373730;28;20098;-62
2023/07/30 03:01:30;;;;;;;2.28;2.08;;;;;;;;;;10368134;28;20048;-62
2023/07/30 03:06:28;;;;;;;4.55;2.65;;;;;;;;;;10372967;28;20082;-62
2023/07/30 03:11:26;;;;;;;2.67;2.47;;;;;;;;;;10370337;28;20063;-63
2023/07/30 03:16:24;;;;;;;6.00;2.65;;;;;;;;;;10372633;28;20067;-62
2023/07/30 03:21:24;;;;;;;3.75;2.50;;;;;;;;;;10377919;28;20503;-61
2023/07/30 03:26:22;;;;;;;3.65;2.17;;;;;;;;;;10386535;28;20072;-62
2023/07/30 03:31:20;;;;;;;3.58;2.10;;;;;;;;;;10377169;28;20453;-62
2023/07/30 03:36:21;;;;;;;3.70;2.42;;;;;;;;;;10380527;28;20075;-62
2023/07/30 03:41:21;;;;;;;2.92;2.28;;;;;;;;;;10377981;27;20084;-62
2023/07/30 03:46:20;;;;;;;6.28;2.50;;;;;;;;;;10375707;28;20071;-62
2023/07/30 03:51:18;;;;;;;2.80;2.33;;;;;;;;;;10379112;28;20063;-62
2023/07/30 03:56:17;;;;;;;3.15;2.80;;;;;;;;;;10377307;28;20090;-62
2023/07/30 04:01:16;;;;;;;3.33;2.60;;;;;;;;;;10375496;28;20070;-63
2023/07/30 04:06:14;;;;;;;3.35;2.78;;;;;;;;;;10377827;28;20060;-61
2023/07/30 04:11:13;;;;;;;3.00;2.50;;;;;;;;;;10375346;28;20712;-62
2023/07/30 04:16:11;;;;;;;3.78;2.63;;;;;;;;;;10374552;28;20076;-62
2023/07/30 04:21:11;;;;;;;2.70;2.50;;;;;;;;;;10376969;28;20082;-63
2023/07/30 04:26:10;;;;;;;2.60;2.38;;;;;;;;;;10373283;28;20307;-62
2023/07/30 04:31:08;;;;;;;4.70;3.10;;;;;;;;;;10374218;28;20067;-62
2023/07/30 04:36:07;;;;;;;7.63;2.80;;;;;;;;;;10377449;28;20075;-62
2023/07/30 04:41:07;;;;;;;3.88;2.25;;;;;;;;;;10374768;28;20159;-62
2023/07/30 04:46:12;;;;;;;3.83;2.65;;;;;;;;;;10373945;28;20079;-62
2023/07/30 04:51:10;;;;;;;2.53;2.33;;;;;;;;;;10373281;28;20052;-62
2023/07/30 04:56:10;;;;;;;3.22;2.70;;;;;;;;;;10378256;28;20098;-63
2023/07/30 05:01:08;;;;;;;5.72;3.03;;;;;;;;;;10379608;28;20509;-62
2023/07/30 05:06:07;;;;;;;5.32;2.90;;;;;;;;;;10374780;28;20067;-62
2023/07/30 05:11:05;;;;;;;2.60;2.40;;;;;;;;;;10376154;28;20071;-62
2023/07/30 05:16:05;;;;;;;3.30;2.50;;;;;;;;;;10373420;28;20075;-63
2023/07/30 05:21:03;;;;;;;4.00;3.00;;;;;;;;;;10374223;28;20513;-63
2023/07/30 05:26:01;;;;;;;3.15;2.70;;;;;;;;;;10368703;28;20079;-62
2023/07/30 05:30:59;;;;;;;6.75;2.72;;;;;;;;;;10374803;28;20078;-62
2023/07/30 05:35:59;;;;;;;3.88;3.20;;;;;;;;;;10375720;28;20082;-62
2023/07/30 05:40:58;;;;;;;3.97;2.50;;;;;;;;;;10373024;28;20079;-61
2023/07/30 05:45:57;;;;;;;4.38;3.35;;;;;;;;;;10355714;28;20075;-62
2023/07/30 05:50:56;;;;;;;5.05;4.00;;;;;;;;;;10358304;28;20063;-61
2023/07/30 05:55:55;;;;;;;4.22;3.83;;;;;;;;;;10402303;27;20075;-61
2023/07/30 06:00:54;;;;;;;4.95;3.55;;;;;;;;;;10412465;27;20059;-61
2023/07/30 06:05:52;;;;;;;5.97;3.80;;;;;;;;;;10408707;27;20067;-61
2023/07/30 06:10:50;;;;;;;7.95;4.47;;;;;;;;;;10409265;27;20516;-61
2023/07/30 06:15:50;;;;;;;11.18;9.18;;;;;;;;;;10408715;27;20078;-62
2023/07/30 06:20:48;;;;;;;6.20;3.55;;;;;;;;;;10409649;27;20074;-62
2023/07/30 06:25:46;;;;;;;7.97;6.15;;;;;;;;;;10409622;27;20086;-63
2023/07/30 06:30:45;;;;;;;6.38;4.05;;;;;;;;;;10408682;27;20483;-62
2023/07/30 06:35:44;;;;;;;2.92;2.70;;;;;;;;;;10414993;27;20109;-61
2023/07/30 06:40:42;;;;;;;3.33;2.70;;;;;;;;;;10415295;27;20094;-61
2023/07/30 06:45:42;;;;;;;4.38;3.35;;;;;;;;;;10412750;28;20075;-61
2023/07/30 06:50:40;;;;;;;4.53;3.20;;;;;;;;;;10417057;27;20063;-62
2023/07/30 06:55:39;;;;;;;2.63;2.42;;;;;;;;;;10419181;27;20083;-62
2023/07/30 07:00:37;;;;;;;4.68;3.33;;;;;;;;;;10422108;27;20082;-62
2023/07/30 07:05:36;;;;;;;4.47;3.65;;;;;;;;;;10416709;27;20471;-61
2023/07/30 07:10:34;;;;;;;5.97;3.13;;;;;;;;;;10420386;27;20515;-61
2023/07/30 07:15:33;;;;;;;4.22;3.03;;;;;;;;;;10420683;27;20482;-61
2023/07/30 07:20:32;;;;;;;4.20;3.25;;;;;;;;;;10420385;27;20075;-63
2023/07/30 07:25:30;;;;;;;4.15;2.65;;;;;;;;;;10420423;27;20071;-62
2023/07/30 07:30:28;;;;;;;2.75;2.55;;;;;;;;;;10418474;27;20079;-62
2023/07/30 07:35:28;;;;;;;6.22;2.92;;;;;;;;;;10419791;27;20078;-62
2023/07/30 07:40:26;;;;;;;3.30;2.88;;;;;;;;;;10419963;27;20075;-62
2023/07/30 07:45:24;;;;;;;3.25;2.95;;;;;;;;;;10419748;27;20078;-62
2023/07/30 07:50:22;;;;;;;4.07;2.78;;;;;;;;;;10419334;27;20518;-62
2023/07/30 07:55:22;;;;;;;3.30;3.00;;;;;;;;;;10414654;27;20067;-61
2023/07/30 08:00:21;;;;;;;3.05;2.75;;;;;;;;;;10418042;27;20064;-61
2023/07/30 08:05:19;;;;;;;3.10;2.85;;;;;;;;;;10420397;27;20059;-62
2023/07/30 08:10:18;;;;;;;6.05;3.55;;;;;;;;;;10417818;27;20086;-62
2023/07/30 08:15:18;;;;;;;5.50;3.25;;;;;;;;;;10418497;27;20075;-62
2023/07/30 08:20:16;;;;;;;4.55;3.33;;;;;;;;;;10416679;27;20078;-62
2023/07/30 08:25:14;;;;;;;6.85;3.47;;;;;;;;;;10417532;27;20066;-62
2023/07/30 08:30:13;;;;;;;5.60;3.10;;;;;;;;;;10417464;27;20087;-63
2023/07/30 08:35:13;;;;;;;5.68;3.60;;;;;;;;;;10417928;27;20073;-62
2023/07/30 08:40:11;;;;;;;4.00;3.58;;;;;;;;;;10417083;27;20078;-62
2023/07/30 08:45:13;;;;;;;4.32;3.17;;;;;;;;;;10417520;27;20484;-63
2023/07/30 08:50:12;;;;;;;6.78;3.50;;;;;;;;;;10420643;27;20507;-62
2023/07/30 08:55:11;;;;;;;3.38;3.08;;;;;;;;;;10406478;27;20078;-62
2023/07/30 09:00:10;;;;;;;3.53;3.22;;;;;;;;;;10419235;27;20500;-61
2023/07/30 09:05:09;;;;;;;6.47;3.33;;;;;;;;;;10410393;27;20093;-61
2023/07/30 09:10:09;;;;;;;5.30;2.80;;;;;;;;;;10413982;27;20063;-62
2023/07/30 09:15:08;;;;;;;2.70;2.45;;;;;;;;;;10408754;27;20468;-62
2023/07/30 09:20:07;;;;;;;5.10;2.55;;;;;;;;;;10407169;27;20066;-62
2023/07/30 09:25:05;;;;;;;2.55;2.35;;;;;;;;;;10410708;27;20067;-62
2023/07/30 09:30:06;;;;;;;3.95;2.97;;;;;;;;;;10413342;27;20078;-63
2023/07/30 09:35:06;;;;;;;3.22;2.65;;;;;;;;;;10416766;27;20078;-62
2023/07/30 09:40:05;;;;;;;4.15;2.50;;;;;;;;;;10401594;27;20702;-62
2023/07/30 09:45:06;;;;;;;4.57;2.63;;;;;;;;;;10414730;27;20078;-63
2023/07/30 09:50:05;;;;;;;4.38;2.83;;;;;;;;;;10412491;27;20059;-62
2023/07/30 09:55:04;;;;;;;4.93;3.30;;;;;;;;;;10409905;27;20109;-63
2023/07/30 10:00:03;;;;;;;5.82;3.00;;;;;;;;;;10412153;27;20560;-62
2023/07/30 10:05:04;;;;;;;11.88;5.25;;;;;;;;;;10412973;27;20086;-61
2023/07/30 10:10:04;;;;;;;12.10;6.30;;;;;;;;;;10411857;27;20135;-63
2023/07/30 10:15:05;;;;;;;4.47;2.45;;;;;;;;;;10410096;27;20073;-62
2023/07/30 10:25:29;;;;;;;7.38;2.28;;;;;;;;;;10323749;27;20395;-63
2023/07/30 10:30:31;;;;;;;4.78;2.85;;;;;;;;;;10320193;28;20531;-63
2023/07/30 10:35:36;;;;;;;2.58;2.38;;;;;;;;;;10320576;28;20060;-62
2023/07/30 10:40:39;;;;;;;2.30;2.08;;;;;;;;;;10324267;28;20506;-63
2023/07/30 10:45:37;;;;;;;3.35;2.45;;;;;;;;;;10321734;28;20087;-62
2023/07/30 10:50:38;;;;;;;3.05;2.72;;;;;;;;;;10325285;28;20512;-62
2023/07/30 10:55:38;;;;;;;2.97;2.63;;;;;;;;;;10320226;28;20080;-62
2023/07/30 11:00:36;;;;;;;3.08;2.78;;;;;;;;;;10319031;28;20084;-62
2023/07/30 11:05:34;;;;;;;3.72;2.72;;;;;;;;;;10319571;28;20087;-64
2023/07/30 11:10:32;;;;;;;5.20;2.70;;;;;;;;;;10323020;28;20094;-62
2023/07/30 11:15:34;;;;;;;2.50;2.30;;;;;;;;;;10326176;28;20076;-62
2023/07/30 11:20:32;;;;;;;2.97;2.67;;;;;;;;;;10324217;28;20075;-61
2023/07/30 11:25:31;;;;;;;5.03;2.40;;;;;;;;;;10296568;28;20510;-62
2023/07/30 11:30:33;;;;;;;4.78;4.30;;;;;;;;;;10313695;28;20099;-62
2023/07/30 11:35:32;;;;;;;3.42;2.75;;;;;;;;;;10292802;28;20073;-62
2023/07/30 11:40:30;;;;;;;4.97;3.20;;;;;;;;;;10289885;28;20086;-63
2023/07/30 11:45:29;;;;;;;2.70;2.50;;;;;;;;;;10281181;28;20569;-63
2023/07/30 11:50:27;;;;;;;3.75;2.97;;;;;;;;;;10289900;28;20533;-63
2023/07/30 11:55:37;;;;;;;7.25;2.80;;;;;;;;;;10290384;28;20069;-63
2023/07/30 12:00:36;;;;;;;3.45;3.05;;;;;;;;;;10286940;28;20076;-62
2023/07/30 12:05:35;;;;;;;3.63;3.33;;;;;;;;;;10285528;28;20092;-62
2023/07/30 12:10:44;;;;;;;3.47;3.17;;;;;;;;;;10284552;28;20076;-63
2023/07/30 12:15:44;;;;;;;2.97;2.38;;;;;;;;;;10290496;28;20061;-63
2023/07/30 12:20:42;;;;;;;3.00;2.70;;;;;;;;;;10283986;28;20889;-63
2023/07/30 12:25:40;;;;;;;3.85;3.45;;;;;;;;;;10274876;28;20068;-62
2023/07/30 12:30:40;;;;;;;4.28;3.25;;;;;;;;;;10269184;28;20064;-62
2023/07/30 12:35:38;;;;;;;3.35;3.05;;;;;;;;;;10288963;28;20072;-62
2023/07/30 12:40:36;;;;;;;3.90;2.85;;;;;;;;;;10289375;28;20071;-61
2023/07/30 12:45:35;;;;;;;6.22;3.20;;;;;;;;;;10290141;28;20554;-63
2023/07/30 12:50:34;;;;;;;3.40;2.92;;;;;;;;;;10290661;28;20080;-62
2023/07/30 12:55:35;;;;;;;3.45;3.15;;;;;;;;;;10288219;28;20071;-62
2023/07/30 13:00:34;;;;;;;3.30;3.00;;;;;;;;;;10286664;28;20067;-63
2023/07/30 13:05:32;;;;;;;3.20;2.90;;;;;;;;;;10281932;28;20080;-62
2023/07/30 13:10:32;;;;;;;2.80;2.60;;;;;;;;;;10291579;28;20545;-62
2023/07/30 13:15:30;;;;;;;4.03;3.10;;;;;;;;;;10285866;28;20075;-62
2023/07/30 13:20:28;;;;;;;4.20;2.88;;;;;;;;;;10289449;28;20463;-64
2023/07/30 13:25:27;;;;;;;2.88;2.65;;;;;;;;;;10286520;28;20079;-62
2023/07/30 13:30:26;;;;;;;4.57;3.13;;;;;;;;;;10282191;28;20076;-63
2023/07/30 13:35:24;;;;;;;3.35;2.80;;;;;;;;;;10280663;28;20060;-63
2023/07/30 13:40:23;;;;;;;4.07;3.03;;;;;;;;;;10283044;28;20071;-62
2023/07/30 13:45:21;;;;;;;3.40;3.10;;;;;;;;;;10282305;28;20084;-62
2023/07/30 13:50:21;;;;;;;4.43;3.70;;;;;;;;;;10283695;28;20619;-62
2023/07/30 13:55:19;;;;;;;5.28;2.50;;;;;;;;;;10272965;28;20068;-62
2023/07/30 14:00:18;;;;;;;4.78;2.80;;;;;;;;;;10280354;28;20079;-62
2023/07/30 14:05:19;;;;;;;2.28;2.08;;;;;;;;;;10280405;28;20073;-61
2023/07/30 14:10:18;;;;;;;5.68;3.08;;;;;;;;;;10287317;28;20076;-61
2023/07/30 14:15:17;;;;;;;2.92;2.72;;;;;;;;;;10285925;28;20544;-62
2023/07/30 14:20:15;;;;;;;2.47;2.28;;;;;;;;;;10285530;28;20517;-61
2023/07/30 14:25:13;;;;;;;3.08;2.78;;;;;;;;;;10287784;28;20076;-61
2023/07/30 14:30:13;;;;;;;3.00;2.70;;;;;;;;;;10285039;28;20068;-62
2023/07/30 14:35:11;;;;;;;3.05;2.67;;;;;;;;;;10289932;28;20073;-62
2023/07/30 14:40:10;;;;;;;4.18;2.50;;;;;;;;;;10290108;28;20068;-62
2023/07/30 14:45:09;;;;;;;2.35;2.15;;;;;;;;;;10289281;28;20075;-63
2023/07/30 14:50:09;;;;;;;2.80;2.60;;;;;;;;;;10291237;28;20080;-63
2023/07/30 14:55:08;;;;;;;5.32;4.75;;;;;;;;;;10290081;28;20076;-61
2023/07/30 15:00:07;;;;;;;3.00;2.70;;;;;;;;;;10288920;28;20553;-61
2023/07/30 15:05:06;;;;;;;4.68;3.45;;;;;;;;;;10290778;28;20080;-63
2023/07/30 15:10:06;;;;;;;2.83;2.28;;;;;;;;;;10296196;28;20064;-62
2023/07/30 15:15:05;;;;;;;4.03;2.88;;;;;;;;;;10297826;28;20465;-62
2023/07/30 15:20:03;;;;;;;3.85;3.30;;;;;;;;;;10296830;28;20569;-62
2023/07/30 15:25:03;;;;;;;8.23;4.32;;;;;;;;;;10282355;28;20085;-60
2023/07/30 15:30:04;;;;;;;3.08;2.80;;;;;;;;;;10291258;28;20480;-62
2023/07/30 15:35:02;;;;;;;4.78;2.60;;;;;;;;;;10296294;28;20084;-61
2023/07/30 15:40:01;;;;;;;4.82;2.35;;;;;;;;;;10284283;28;20057;-61
2023/07/30 15:45:05;;;;;;;9.43;6.93;;;;;;;;;;10270710;28;20077;-62
2023/07/30 15:50:04;;;;;;;3.40;3.10;;;;;;;;;;10287016;28;20075;-63
2023/07/30 15:55:03;;;;;;;3.67;2.78;;;;;;;;;;10294274;28;20064;-61
2023/07/30 16:00:02;;;;;;;3.90;3.53;;;;;;;;;;10293376;28;20076;-63
2023/07/30 16:05:10;;;;;;;3.53;3.17;;;;;;;;;;10294037;28;20080;-63
2023/07/30 16:10:09;;;;;;;5.72;3.95;;;;;;;;;;10295972;28;20095;-63
2023/07/30 16:15:10;;;;;;;3.42;3.13;;;;;;;;;;10294352;28;20076;-63
2023/07/30 16:20:10;;;;;;;4.28;3.25;;;;;;;;;;10296398;28;20084;-62
2023/07/30 16:25:09;;;;;;;7.13;6.40;;;;;;;;;;10292519;28;20088;-62
2023/07/30 16:30:08;;;;;;;4.00;3.28;;;;;;;;;;10292317;28;20085;-62
2023/07/30 16:35:10;;;;;;;10.73;9.63;;;;;;;;;;10294074;28;20537;-62
2023/07/30 16:40:09;;;;;;;3.85;3.33;;;;;;;;;;10292171;28;20506;-62
2023/07/30 16:45:08;;;;;;;6.45;3.40;;;;;;;;;;10294735;28;20088;-62
2023/07/30 16:50:07;;;;;;;3.67;3.38;;;;;;;;;;10295039;28;20080;-62
2023/07/30 16:55:07;;;;;;;3.95;2.80;;;;;;;;;;10294339;28;20077;-63
2023/07/30 17:00:06;;;;;;;5.07;2.78;;;;;;;;;;10291101;28;20083;-61
2023/07/30 17:05:05;;;;;;;3.45;2.58;;;;;;;;;;10292164;28;20080;-62
2023/07/30 17:10:03;;;;;;;6.93;3.45;;;;;;;;;;10293339;28;20134;-62
2023/07/30 17:15:07;;;;;;;3.83;3.50;;;;;;;;;;10290558;28;20788;-62
2023/07/30 17:20:06;;;;;;;6.43;3.97;;;;;;;;;;10292163;28;20471;-63
2023/07/30 17:25:12;;;;;;;5.85;3.88;;;;;;;;;;10291216;28;20080;-63
2023/07/30 17:30:12;;;;;;;6.43;4.18;;;;;;;;;;10290459;28;20076;-63
2023/07/30 17:35:10;;;;;;;4.28;3.50;;;;;;;;;;10291819;28;20088;-63
2023/07/30 17:40:09;;;;;;;5.32;3.72;;;;;;;;;;10292689;28;20076;-62
2023/07/30 17:45:08;;;;;;;4.90;3.65;;;;;;;;;;10290869;28;20087;-63
2023/07/30 17:50:08;;;;;;;6.70;3.50;;;;;;;;;;10289700;28;20084;-63
2023/07/30 17:55:07;;;;;;;7.47;6.72;;;;;;;;;;10289713;28;20455;-63
2023/07/30 18:00:10;;;;;;;7.78;4.95;;;;;;;;;;10290912;28;20072;-61
2023/07/30 18:05:14;;;;;;;9.32;5.53;;;;;;;;;;10288801;28;20107;-61
2023/07/30 18:10:17;;;;;;;7.88;4.93;;;;;;;;;;10290684;28;20064;-60
2023/07/30 18:15:16;;;;;;;8.25;4.43;;;;;;;;;;10291395;28;20489;-62
2023/07/30 18:20:15;;;;;;;8.30;7.35;;;;;;;;;;10289710;28;20080;-62
2023/07/30 18:25:14;;;;;;;5.95;4.13;;;;;;;;;;10289238;28;20095;-62
2023/07/30 18:30:12;;;;;;;5.43;3.58;;;;;;;;;;10289783;28;20076;-62
2023/07/30 18:35:10;;;;;;;6.05;4.32;;;;;;;;;;10291669;28;20514;-62
2023/07/30 18:40:11;;;;;;;9.70;4.93;;;;;;;;;;10287993;28;20064;-63
2023/07/30 18:45:09;;;;;;;3.50;3.20;;;;;;;;;;10292573;28;20084;-62
2023/07/30 18:50:08;;;;;;;3.60;3.30;;;;;;;;;;10297805;28;20089;-62
2023/07/30 18:55:07;;;;;;;3.58;3.28;;;;;;;;;;10297365;28;20522;-62
2023/07/30 19:00:08;;;;;;;4.25;3.13;;;;;;;;;;10298302;28;20075;-63
2023/07/30 19:05:07;;;;;;;3.20;2.75;;;;;;;;;;10294872;28;20076;-62
2023/07/30 19:10:06;;;;;;;5.20;2.92;;;;;;;;;;10294354;28;20076;-61
2023/07/30 19:15:05;;;;;;;3.35;2.75;;;;;;;;;;10296531;28;20126;-63
2023/07/30 19:20:05;;;;;;;3.53;3.22;;;;;;;;;;10297184;28;20076;-63
2023/07/30 19:25:04;;;;;;;2.65;2.45;;;;;;;;;;10298122;28;20091;-62
2023/07/30 19:30:04;;;;;;;2.30;2.10;;;;;;;;;;10296081;28;20537;-62
2023/07/30 19:35:02;;;;;;;3.13;2.17;;;;;;;;;;10295081;28;20060;-62
2023/07/30 19:40:02;;;;;;;2.92;2.63;;;;;;;;;;10294844;28;20098;-63
2023/07/30 19:45:00;;;;;;;5.00;2.08;;;;;;;;;;10296472;28;20095;-63
2023/07/30 19:50:02;;;;;;;4.18;2.60;;;;;;;;;;10295772;28;20095;-64
2023/07/30 19:55:17;;;;;;;4.47;2.20;;;;;;;;;;10294745;28;20083;-62
2023/07/30 20:00:15;;;;;;;4.05;2.72;;;;;;;;;;10272943;28;20084;-61
2023/07/30 20:05:15;;;;;;;4.18;3.88;;;;;;;;;;10294994;28;20087;-61
2023/07/30 20:10:13;;;;;;;4.75;2.40;;;;;;;;;;10300122;28;20494;-62
2023/07/30 20:15:12;;;;;;;4.65;2.10;;;;;;;;;;10295576;28;20592;-62
2023/07/30 20:20:11;;;;;;;2.42;2.20;;;;;;;;;;10295198;28;20068;-62
2023/07/30 20:25:10;;;;;;;5.00;2.10;;;;;;;;;;10295712;28;20087;-61
2023/07/30 20:30:09;;;;;;;4.97;2.58;;;;;;;;;;10295697;28;20076;-62
2023/07/30 20:35:09;;;;;;;1.58;1.48;;;;;;;;;;10294222;28;20065;-62
2023/07/30 20:40:10;;;;;;;3.35;2.20;;;;;;;;;;10294011;28;20079;-61
2023/07/30 20:45:09;;;;;;;3.63;1.85;;;;;;;;;;10294266;28;20076;-62
2023/07/30 20:50:14;;;;;;;7.72;2.30;;;;;;;;;;10293007;28;20109;-62
2023/07/30 20:55:13;;;;;;;5.25;2.20;;;;;;;;;;10290521;28;20088;-61
2023/07/30 21:00:12;;;;;;;4.90;2.30;;;;;;;;;;10294048;28;20458;-62
2023/07/30 21:05:12;;;;;;;5.28;2.08;;;;;;;;;;10282626;28;20073;-62
2023/07/30 21:10:11;;;;;;;3.30;2.30;;;;;;;;;;10271245;28;20068;-62
2023/07/30 21:15:09;;;;;;;1.98;1.83;;;;;;;;;;10290683;28;20071;-63
2023/07/30 21:20:09;;;;;;;3.75;1.90;;;;;;;;;;10274941;28;20083;-62
2023/07/30 21:25:10;;;;;;;8.73;1.90;;;;;;;;;;10286821;28;20103;-63
2023/07/30 21:30:09;;;;;;;2.65;1.75;;;;;;;;;;10287533;28;20072;-63
2023/07/30 21:35:08;;;;;;;6.38;2.00;;;;;;;;;;10279964;28;20072;-63
2023/07/30 21:40:07;;;;;;;4.78;1.88;;;;;;;;;;10282976;28;20079;-63
2023/07/30 21:45:07;;;;;;;2.30;2.00;;;;;;;;;;10281206;28;20076;-63
2023/07/30 21:50:06;;;;;;;5.70;1.60;;;;;;;;;;10280954;28;20107;-63
2023/07/30 21:55:04;;;;;;;2.97;1.85;;;;;;;;;;10282226;28;20089;-62
2023/07/30 22:00:03;;;;;;;1.83;1.73;;;;;;;;;;10285666;28;20513;-63
2023/07/30 22:05:06;;;;;;;2.00;1.85;;;;;;;;;;10297137;28;20478;-61
2023/07/30 22:10:05;;;;;;;2.75;1.58;;;;;;;;;;10288101;28;20061;-62
2023/07/30 22:15:03;;;;;;;2.63;1.70;;;;;;;;;;10285342;28;20072;-62
2023/07/30 22:20:01;;;;;;;1.48;1.38;;;;;;;;;;10288259;28;20087;-62
2023/07/30 22:25:01;;;;;;;1.83;1.67;;;;;;;;;;10284346;28;20068;-62
2023/07/30 22:29:59;;;;;;;4.22;2.08;;;;;;;;;;10289309;28;20110;-63
2023/07/30 22:34:58;;;;;;;2.65;2.40;;;;;;;;;;10282206;28;20076;-62
2023/07/30 22:39:56;;;;;;;3.17;1.80;;;;;;;;;;10277738;28;20087;-62
2023/07/30 22:44:58;;;;;;;2.10;1.92;;;;;;;;;;10285340;28;20453;-61
2023/07/30 22:49:56;;;;;;;2.53;2.22;;;;;;;;;;10287107;28;20130;-61
2023/07/30 22:54:55;;;;;;;5.15;4.07;;;;;;;;;;10285526;28;20517;-62
2023/07/30 22:59:53;;;;;;;6.13;5.07;;;;;;;;;;10288793;28;20070;-62
2023/07/30 23:04:52;;;;;;;13.98;6.10;;;;;;;;;;10286300;28;20083;-62
2023/07/30 23:09:51;;;;;;;9.52;5.80;;;;;;;;;;10286546;28;20064;-62
2023/07/30 23:14:49;;;;;;;6.50;5.45;;;;;;;;;;10286544;28;20068;-62
2023/07/30 23:19:47;;;;;;;5.65;5.03;;;;;;;;;;10283874;28;20532;-61
2023/07/30 23:24:47;;;;;;;6.05;5.53;;;;;;;;;;10284804;28;21453;-61
2023/07/30 23:29:46;;;;;;;5.85;5.35;;;;;;;;;;10290933;28;20068;-61
2023/07/30 23:34:44;;;;;;;6.35;5.45;;;;;;;;;;10294103;28;20518;-61
2023/07/30 23:39:42;;;;;;;5.43;4.82;;;;;;;;;;10292551;28;20079;-62
2023/07/30 23:44:42;;;;;;;6.30;4.78;;;;;;;;;;10292885;28;20061;-63
2023/07/30 23:49:40;;;;;;;5.10;4.60;;;;;;;;;;10292847;28;20505;-62
2023/07/30 23:54:38;;;;;;;4.25;3.85;;;;;;;;;;10290369;28;20064;-62
2023/07/30 23:59:36;;;;;;;4.65;4.20;;;;;;;;;;10291859;28;20075;-62
